Cookies

¿Aceptas nuestras cookies?

Aceptar
VAM | Vabird-VBD

Virtual Vabird! Aerolínea Virtual de habla hispana, desde 2011




 INFORMACIÓN METAR y TAF
METAR FOR PALU
ADDS - METARS form results

(1236 UTC 03 December 2021)
Data provider http://aviationweather.gov/metar/data/
 
METAR text: PALU 031155Z AUTO 17044G61KT 1 1/2SM -SN HZ BKN110 M10/M19 A2989 RMK AO2 PK WND 15072/1128 SNB0955 SLP120 P0000 60000 T10971194 11096 21153 56041
Conditions at: PALU (CAPE LISBURNE , AK, US) observed 1155 UTC 03 December 2021
Temperature: -9.7°C (15°F)
Dewpoint: -19.4°C (-3°F) [RH = 45%]
Pressure (altimeter): 29.89 inches Hg (1012.3 mb)
[Sea-level pressure: 1012.0 mb]
Winds: from the S (170 degrees) at 51 MPH (44 knots; 22.6 m/s)
gusting to 70 MPH (61 knots; 31.4 m/s)
Visibility: 1.50 miles (2.41 km)
Ceiling: 11000 feet AGL
Clouds: broken clouds at 11000 feet AGL
Weather: -SN HZ  (light snow, haze)

 MAPA DE AEROPUERTO

 INFORMACIÓN DE PISTA